Time;durP1;ratioP1;P1;durP2;ratioP2;P2;SDS_P1;SDS_P2;PMS_P1;PMS_P2;Temp;Humidity;BMP_temperature;BMP_pressure;BME280_temperature;BME280_humidity;BME280_pressure;Samples;Min_cycle;Max_cycle;Signal;HPM_P1;HPM_P2
2023/07/13 00:01:58;;;;;;;6.50;2.03;;;;;;;13.82;100.00;100722.59;4928725;29;20039;-77
2023/07/13 00:04:25;;;;;;;7.78;2.72;;;;;;;13.77;100.00;100714.25;4948062;28;20059;-77
2023/07/13 00:06:51;;;;;;;8.00;2.90;;;;;;;13.70;100.00;100703.44;4954935;28;20042;-77
2023/07/13 00:09:18;;;;;;;4.03;2.15;;;;;;;13.61;100.00;100701.84;4963093;28;20027;-77
2023/07/13 00:11:47;;;;;;;3.65;2.20;;;;;;;13.61;100.00;100714.44;4922961;29;20397;-77
2023/07/13 00:14:13;;;;;;;7.15;2.50;;;;;;;13.51;100.00;100706.66;4948152;28;20039;-77
2023/07/13 00:16:43;;;;;;;7.28;2.85;;;;;;;13.47;100.00;100714.22;4962973;28;20034;-77
2023/07/13 00:19:10;;;;;;;5.07;2.35;;;;;;;13.38;100.00;100715.31;4948274;28;20043;-78
2023/07/13 00:21:35;;;;;;;3.47;1.92;;;;;;;13.38;100.00;100719.84;4929415;29;20389;-76
2023/07/13 00:24:01;;;;;;;5.20;2.33;;;;;;;13.38;100.00;100728.72;4962730;28;20031;-77
2023/07/13 00:26:26;;;;;;;9.03;2.53;;;;;;;13.36;100.00;100720.00;4964156;28;20026;-77
2023/07/13 00:28:52;;;;;;;10.45;2.60;;;;;;;13.36;100.00;100727.22;4947821;29;20039;-77
2023/07/13 00:31:17;;;;;;;9.97;2.83;;;;;;;13.31;100.00;100735.81;4952609;28;20031;-76
2023/07/13 00:33:43;;;;;;;7.27;3.27;;;;;;;13.44;100.00;100756.66;4948315;29;20295;-77
2023/07/13 00:36:09;;;;;;;6.35;3.05;;;;;;;13.41;100.00;100757.84;4937841;29;20054;-77
2023/07/13 00:38:35;;;;;;;;;;;;;;;13.46;100.00;100763.53;4947568;29;20508;-77
2023/07/13 00:41:01;;;;;;;;;;;;;;;13.45;100.00;100756.47;4948311;28;19957;-77
2023/07/13 00:43:28;;;;;;;7.57;3.58;;;;;;;13.35;100.00;100745.16;4940882;29;19914;-78
2023/07/13 00:45:53;;;;;;;9.70;3.72;;;;;;;13.38;100.00;100758.22;4941746;29;20092;-78
2023/07/13 00:48:21;;;;;;;19.20;4.87;;;;;;;13.41;100.00;100746.28;4961466;28;20760;-77
2023/07/13 00:50:50;;;;;;;11.27;4.25;;;;;;;13.41;100.00;100738.25;4954900;28;20062;-77
2023/07/13 00:53:17;;;;;;;7.15;3.95;;;;;;;13.49;100.00;100757.78;4963684;28;20027;-77
2023/07/13 00:55:43;;;;;;;9.98;3.35;;;;;;;13.57;100.00;100756.88;4960805;28;20024;-77
2023/07/13 00:58:09;;;;;;;4.67;3.23;;;;;;;13.56;100.00;100759.75;4963650;28;20035;-77
2023/07/13 01:00:37;;;;;;;12.20;4.43;;;;;;;13.53;100.00;100755.56;4949258;29;20058;-77
2023/07/13 01:03:04;;;;;;;10.43;4.25;;;;;;;13.46;100.00;100759.97;4962498;28;20043;-77
2023/07/13 01:05:31;;;;;;;;;;;;;;;13.50;100.00;100762.13;4941918;29;20078;-78
2023/07/13 01:07:57;;;;;;;10.55;4.22;;;;;;;13.52;100.00;100765.47;4949459;28;19914;-77
2023/07/13 01:10:23;;;;;;;9.75;3.90;;;;;;;13.59;100.00;100764.75;4949054;29;20058;-77
2023/07/13 01:12:49;;;;;;;8.95;4.13;;;;;;;13.64;100.00;100771.22;4952192;29;20409;-77
2023/07/13 01:15:33;;;;;;;11.30;3.87;;;;;;;13.74;100.00;100773.63;4952541;29;20030;-78
2023/07/13 01:17:58;;;;;;;11.32;5.13;;;;;;;13.76;100.00;100763.56;4968616;28;20118;-78
2023/07/13 01:20:24;;;;;;;6.68;4.00;;;;;;;13.78;100.00;100761.53;4946051;29;20756;-78
2023/07/13 01:22:50;;;;;;;10.87;5.43;;;;;;;13.82;100.00;100754.78;4952221;29;20122;-77
2023/07/13 01:25:16;;;;;;;12.82;5.25;;;;;;;13.96;100.00;100771.91;4967423;28;20472;-78
2023/07/13 01:27:42;;;;;;;10.40;5.75;;;;;;;13.88;100.00;100762.13;4960362;28;20089;-76
2023/07/13 01:30:09;;;;;;;17.52;5.60;;;;;;;13.93;100.00;100761.56;4952873;28;20031;-78
2023/07/13 01:32:34;;;;;;;14.63;4.55;;;;;;;13.97;100.00;100760.16;4946525;29;20023;-78
2023/07/13 01:35:00;;;;;;;6.70;4.70;;;;;;;13.90;100.00;100757.38;4947875;29;20020;-77
2023/07/13 01:37:26;;;;;;;12.93;5.70;;;;;;;13.92;100.00;100759.88;4964772;28;20122;-77
2023/07/13 01:39:52;;;;;;;9.55;4.30;;;;;;;13.80;100.00;100751.44;4962607;28;20293;-77
2023/07/13 01:42:18;;;;;;;9.50;5.30;;;;;;;13.77;100.00;100757.19;4939584;29;20047;-76
2023/07/13 01:44:43;;;;;;;9.50;5.13;;;;;;;13.70;100.00;100745.53;4948094;29;20024;-76
2023/07/13 01:47:09;;;;;;;8.73;5.33;;;;;;;13.71;100.00;100756.06;4956026;29;20031;-79
2023/07/13 01:49:35;;;;;;;16.40;6.18;;;;;;;13.72;100.00;100749.69;4966009;28;20032;-79
2023/07/13 01:52:01;;;;;;;14.93;5.50;;;;;;;13.69;100.00;100742.00;4950761;29;20058;-77
2023/07/13 01:54:27;;;;;;;9.50;5.43;;;;;;;13.73;100.00;100745.97;4968120;28;20221;-77
2023/07/13 01:56:52;;;;;;;12.77;5.75;;;;;;;13.58;100.00;100741.59;4967936;28;20046;-76
2023/07/13 01:59:17;;;;;;;14.90;5.30;;;;;;;13.50;100.00;100743.34;4950745;29;20039;-77
2023/07/13 02:01:43;;;;;;;12.37;6.43;;;;;;;13.47;100.00;100735.66;4947674;29;20031;-77
2023/07/13 02:04:08;;;;;;;9.50;5.23;;;;;;;13.50;100.00;100742.50;4934859;29;20029;-78
2023/07/13 02:06:33;;;;;;;10.27;4.70;;;;;;;13.57;100.00;100740.78;4965304;28;20473;-77
2023/07/13 02:08:59;;;;;;;12.13;5.10;;;;;;;13.60;100.00;100744.94;4963712;28;20083;-78
2023/07/13 02:11:32;;;;;;;9.10;4.82;;;;;;;13.56;100.00;100722.19;4946542;29;20102;-77
2023/07/13 02:13:58;;;;;;;9.13;4.85;;;;;;;13.58;100.00;100734.41;4934273;29;20492;-76
2023/07/13 02:16:23;;;;;;;16.95;4.95;;;;;;;13.56;100.00;100739.13;4933233;29;20115;-77
2023/07/13 02:18:52;;;;;;;9.80;4.70;;;;;;;13.62;100.00;100724.13;4931319;29;20050;-78
2023/07/13 02:21:17;;;;;;;8.05;4.45;;;;;;;13.61;100.00;100722.47;4954857;28;20042;-76
2023/07/13 02:23:43;;;;;;;12.10;4.50;;;;;;;13.59;100.00;100711.09;4946410;28;20036;-78
2023/07/13 02:26:09;;;;;;;11.87;4.80;;;;;;;13.49;100.00;100720.22;4940545;29;20030;-77
2023/07/13 02:28:35;;;;;;;7.50;4.28;;;;;;;13.45;100.00;100716.25;4934927;29;20564;-77
2023/07/13 02:31:09;;;;;;;10.00;4.30;;;;;;;13.54;100.00;100713.50;4939730;29;20493;-77
2023/07/13 02:33:34;;;;;;;10.13;4.10;;;;;;;13.43;100.00;100704.84;4933452;29;20040;-77
2023/07/13 02:36:00;;;;;;;11.87;4.53;;;;;;;13.48;100.00;100702.47;4939736;29;20035;-78
2023/07/13 02:38:25;;;;;;;9.13;4.23;;;;;;;13.50;100.00;100696.94;4929631;29;20036;-76
2023/07/13 02:40:51;;;;;;;10.95;4.43;;;;;;;13.43;100.00;100688.78;4934201;29;20110;-77
2023/07/13 02:43:19;;;;;;;16.02;4.03;;;;;;;13.43;100.00;100680.72;4938199;29;20070;-76
2023/07/13 02:45:46;;;;;;;6.25;3.10;;;;;;;13.45;100.00;100683.22;4945846;28;20043;-77
2023/07/13 02:48:14;;;;;;;10.40;3.13;;;;;;;13.48;100.00;100682.84;4933380;29;20040;-77
2023/07/13 02:50:39;;;;;;;4.43;3.38;;;;;;;13.56;100.00;100674.75;4929673;29;20027;-77
2023/07/13 02:53:04;;;;;;;4.57;3.03;;;;;;;13.63;100.00;100682.91;4929135;29;20039;-77
2023/07/13 02:55:30;;;;;;;12.45;3.30;;;;;;;13.67;100.00;100670.75;4929624;29;20035;-77
2023/07/13 02:57:56;;;;;;;6.77;3.50;;;;;;;13.70;100.00;100665.88;4929771;29;20265;-76
2023/07/13 03:00:22;;;;;;;7.28;3.30;;;;;;;13.82;100.00;100668.09;4934440;29;20027;-76
2023/07/13 03:02:48;;;;;;;8.55;3.00;;;;;;;13.83;100.00;100653.66;4933697;29;20057;-77
2023/07/13 03:05:16;;;;;;;8.20;3.05;;;;;;;13.90;100.00;100657.25;4937349;28;20023;-77
2023/07/13 03:07:42;;;;;;;5.53;3.15;;;;;;;13.94;100.00;100655.88;4943241;28;20850;-77
2023/07/13 03:10:09;;;;;;;7.38;3.72;;;;;;;13.94;100.00;100656.69;4940822;28;20404;-77
2023/07/13 03:12:42;;;;;;;8.57;4.05;;;;;;;13.92;100.00;100663.25;4933516;29;20405;-77
2023/07/13 03:15:15;;;;;;;11.82;3.55;;;;;;;13.98;100.00;100669.72;4926161;29;20050;-78
2023/07/13 03:17:43;;;;;;;10.60;3.58;;;;;;;14.06;100.00;100683.06;4929074;28;20140;-77
2023/07/13 03:20:09;;;;;;;11.43;3.67;;;;;;;14.10;100.00;100684.34;4932675;29;20117;-77
2023/07/13 03:22:34;;;;;;;11.10;4.50;;;;;;;14.14;100.00;100688.31;4939747;28;20027;-77
2023/07/13 03:25:00;;;;;;;11.40;4.35;;;;;;;14.15;100.00;100698.88;4949812;28;20090;-77
2023/07/13 03:27:25;;;;;;;9.47;4.83;;;;;;;14.17;100.00;100703.25;4931357;29;20106;-77
2023/07/13 03:29:50;;;;;;;8.63;4.57;;;;;;;14.15;100.00;100700.72;4934791;29;20028;-77
2023/07/13 03:32:17;;;;;;;6.63;4.45;;;;;;;14.14;100.00;100702.59;4935572;28;20461;-77
2023/07/13 03:34:42;;;;;;;11.33;5.13;;;;;;;14.18;100.00;100703.03;4927914;29;20114;-77
2023/07/13 03:37:09;;;;;;;9.38;4.63;;;;;;;14.13;100.00;100716.19;4935818;29;20159;-77
2023/07/13 03:39:35;;;;;;;13.15;5.85;;;;;;;14.11;100.00;100727.09;4944595;28;20039;-77
2023/07/13 03:42:01;;;;;;;11.77;5.80;;;;;;;14.17;100.00;100730.91;4933245;29;20547;-77
2023/07/13 03:44:27;;;;;;;14.10;6.30;;;;;;;14.20;100.00;100730.53;4927518;29;20023;-77
2023/07/13 03:46:55;;;;;;;11.10;6.13;;;;;;;14.15;100.00;100724.91;4936336;29;20553;-77
2023/07/13 03:49:20;;;;;;;17.57;6.57;;;;;;;14.18;100.00;100746.00;4932537;29;20031;-76
2023/07/13 03:51:46;;;;;;;13.50;5.73;;;;;;;14.20;100.00;100752.00;4932390;29;20501;-77
2023/07/13 03:54:11;;;;;;;12.45;6.05;;;;;;;14.25;100.00;100752.28;4933268;29;20466;-78
2023/07/13 03:56:37;;;;;;;8.40;5.80;;;;;;;14.25;100.00;100754.16;4936646;29;20047;-78
2023/07/13 03:59:03;;;;;;;13.60;6.43;;;;;;;14.31;100.00;100761.47;4943318;28;20329;-77
2023/07/13 04:01:30;;;;;;;14.48;8.35;;;;;;;14.33;100.00;100749.50;4936391;29;20039;-77
2023/07/13 04:03:55;;;;;;;;;;;;;;;14.43;100.00;100776.06;4927715;29;20044;-77
2023/07/13 04:06:29;;;;;;;12.32;6.18;;;;;;;14.51;100.00;100767.06;4928183;29;20268;-77
2023/07/13 04:08:57;;;;;;;11.10;7.13;;;;;;;14.64;100.00;100772.66;4929273;29;20378;-78
2023/07/13 04:11:25;;;;;;;11.43;6.53;;;;;;;14.73;100.00;100757.25;4933457;29;20031;-77
2023/07/13 04:13:51;;;;;;;12.77;7.18;;;;;;;14.76;100.00;100759.56;4929355;29;20040;-77
2023/07/13 04:16:18;;;;;;;11.63;6.87;;;;;;;14.81;100.00;100757.13;4937521;29;20469;-77
2023/07/13 04:18:44;;;;;;;11.48;8.02;;;;;;;14.84;100.00;100751.38;4924288;29;20619;-77
2023/07/13 04:21:09;;;;;;;12.43;5.97;;;;;;;14.89;100.00;100743.59;4928269;29;20078;-77
2023/07/13 04:23:35;;;;;;;10.10;6.73;;;;;;;15.00;100.00;100750.28;4943350;28;20032;-77
2023/07/13 04:26:01;;;;;;;;;;;;;;;15.00;100.00;100734.16;4938281;29;20023;-77
2023/07/13 04:28:27;;;;;;;10.07;6.25;;;;;;;15.03;100.00;100731.13;4928654;29;19930;-78
2023/07/13 04:30:53;;;;;;;8.15;5.30;;;;;;;15.07;100.00;100729.69;4927905;29;20031;-76
2023/07/13 04:33:22;;;;;;;9.25;5.38;;;;;;;14.97;100.00;100723.81;4943692;28;20032;-77
2023/07/13 04:35:47;;;;;;;15.32;6.25;;;;;;;14.95;100.00;100707.84;4939939;29;20042;-76
2023/07/13 04:38:14;;;;;;;7.95;5.40;;;;;;;14.97;100.00;100715.72;4944725;28;20098;-78
2023/07/13 04:40:40;;;;;;;9.68;4.93;;;;;;;14.92;100.00;100704.72;4929444;29;20044;-78
2023/07/13 04:43:05;;;;;;;12.50;6.50;;;;;;;14.90;100.00;100698.72;4932972;29;20223;-77
2023/07/13 04:45:31;;;;;;;9.30;4.67;;;;;;;14.93;100.00;100692.94;4949288;28;20023;-78
2023/07/13 04:47:56;;;;;;;8.38;5.70;;;;;;;15.20;100.00;100705.59;4938754;29;20043;-78
2023/07/13 04:50:22;;;;;;;12.27;4.80;;;;;;;15.27;100.00;100697.59;4938568;29;20042;-76
2023/07/13 04:52:49;;;;;;;9.40;4.82;;;;;;;15.35;100.00;100689.38;4927768;29;20493;-77
2023/07/13 04:55:15;;;;;;;7.32;4.10;;;;;;;15.51;100.00;100677.50;4932464;29;20065;-78
2023/07/13 04:57:40;;;;;;;7.97;4.72;;;;;;;15.52;100.00;100660.34;4948913;28;20130;-77
2023/07/13 05:00:07;;;;;;;12.87;4.77;;;;;;;15.48;100.00;100647.47;4932610;29;20130;-78
2023/07/13 05:02:33;;;;;;;8.90;4.25;;;;;;;15.75;100.00;100659.25;4931401;29;20041;-75
2023/07/13 05:04:58;;;;;;;6.97;4.00;;;;;;;15.86;100.00;100633.63;4940029;29;20024;-78
2023/07/13 05:07:25;;;;;;;8.45;4.35;;;;;;;15.84;100.00;100625.75;4956413;28;20062;-76
2023/07/13 05:09:50;;;;;;;;;;;;;;;16.02;100.00;100633.28;4940373;29;20045;-77
2023/07/13 05:12:15;;;;;;;;;;;;;;;16.06;100.00;100610.31;4934061;29;19915;-77
2023/07/13 05:14:41;;;;;;;10.63;4.20;;;;;;;16.02;100.00;100612.56;4942276;28;19926;-78
2023/07/13 05:17:06;;;;;;;11.00;5.37;;;;;;;16.32;100.00;100606.88;4937443;29;20040;-78
2023/07/13 05:19:32;;;;;;;6.97;4.07;;;;;;;16.30;100.00;100587.38;4934420;29;20532;-77
2023/07/13 05:21:57;;;;;;;8.88;4.10;;;;;;;16.48;100.00;100577.88;4948719;28;20095;-77
2023/07/13 05:24:23;;;;;;;5.60;3.67;;;;;;;16.61;100.00;100559.03;4950474;28;20070;-76
2023/07/13 05:26:48;;;;;;;7.75;3.58;;;;;;;16.76;100.00;100543.47;4926468;29;20418;-77
2023/07/13 05:29:14;;;;;;;7.17;4.10;;;;;;;16.92;100.00;100533.34;4951001;28;20035;-76
2023/07/13 05:31:39;;;;;;;6.20;3.57;;;;;;;16.94;100.00;100485.41;4942264;28;20036;-77
2023/07/13 05:34:05;;;;;;;8.87;3.17;;;;;;;17.02;100.00;100471.69;4934655;29;20358;-76
2023/07/13 05:36:30;;;;;;;12.20;3.72;;;;;;;17.46;100.00;100470.09;4948351;28;20089;-77
2023/07/13 05:38:56;;;;;;;11.02;2.78;;;;;;;18.07;100.00;100423.63;4946829;28;20142;-77
2023/07/13 05:41:21;;;;;;;7.60;2.93;;;;;;;18.05;100.00;100252.88;4936542;29;20038;-77
2023/07/13 05:43:46;;;;;;;10.97;3.37;;;;;;;18.76;100.00;100256.84;4965611;23;20051;-73
2023/07/13 05:46:12;;;;;;;10.10;3.20;;;;;;;19.54;100.00;100163.00;4948107;28;20039;-73
2023/07/13 05:48:38;;;;;;;8.17;2.73;;;;;;;19.59;100.00;100086.50;4944957;28;20070;-73
2023/07/13 05:51:03;;;;;;;7.80;3.60;;;;;;;19.92;100.00;100037.09;4941883;28;20043;-73
2023/07/13 05:53:28;;;;;;;10.80;3.93;;;;;;;19.97;100.00;99963.22;4944070;28;20031;-73
2023/07/13 05:55:54;;;;;;;11.20;3.70;;;;;;;20.03;100.00;99954.13;4948477;28;20046;-73
2023/07/13 05:58:20;;;;;;;6.50;2.90;;;;;;;20.46;100.00;99977.06;4951630;28;20030;-73
2023/07/13 06:00:47;;;;;;;12.05;3.95;;;;;;;20.69;100.00;100019.50;4956403;28;20039;-73
2023/07/13 06:03:14;;;;;;;7.72;2.60;;;;;;;20.72;100.00;99904.28;4952265;28;20448;-74
2023/07/13 06:05:39;;;;;;;;;;;;;;;20.71;100.00;99891.78;4948216;28;20327;-74
2023/07/13 06:08:08;;;;;;;8.85;2.30;;;;;;;21.45;100.00;99941.09;4959343;28;20070;-74
2023/07/13 06:10:35;;;;;;;6.95;3.45;;;;;;;21.70;100.00;99850.06;4958161;28;20384;-74
2023/07/13 06:13:00;;;;;;;9.45;2.72;;;;;;;22.30;100.00;99897.88;4972404;28;20034;-73
2023/07/13 06:15:25;;;;;;;10.80;3.17;;;;;;;21.55;100.00;99735.88;4949508;28;20031;-73
2023/07/13 06:17:51;;;;;;;5.70;2.63;;;;;;;20.71;100.00;99756.19;4956611;28;20050;-73
2023/07/13 06:20:16;;;;;;;9.83;2.43;;;;;;;19.35;100.00;99932.25;4955995;28;20051;-74
2023/07/13 06:22:41;;;;;;;12.17;2.83;;;;;;;19.18;100.00;100145.94;4953871;28;20031;-74
2023/07/13 06:25:07;;;;;;;9.97;3.30;;;;;;;19.05;100.00;100221.09;4946555;28;20396;-73
2023/07/13 06:27:33;;;;;;;7.43;2.65;;;;;;;18.76;100.00;100420.94;4951434;28;20023;-73
2023/07/13 06:29:58;;;;;;;9.67;3.27;;;;;;;18.53;100.00;100402.66;4952007;28;20186;-73
2023/07/13 06:32:23;;;;;;;9.73;2.63;;;;;;;18.19;100.00;100467.00;4953345;28;20027;-73
2023/07/13 06:34:51;;;;;;;9.27;2.63;;;;;;;18.47;100.00;100558.47;4948769;28;20508;-73
2023/07/13 06:37:17;;;;;;;11.18;2.50;;;;;;;18.13;100.00;100578.63;4954829;28;21157;-73
2023/07/13 06:39:42;;;;;;;20.17;4.30;;;;;;;18.31;100.00;100648.19;4950330;28;20043;-73
2023/07/13 06:42:07;;;;;;;12.87;3.17;;;;;;;17.80;100.00;100585.00;4955203;28;20027;-73
2023/07/13 06:44:33;;;;;;;12.77;3.03;;;;;;;18.14;100.00;100681.09;4953530;28;20291;-73
2023/07/13 06:46:58;;;;;;;12.40;2.57;;;;;;;17.97;100.00;100619.66;4946514;28;20103;-73
2023/07/13 06:49:23;;;;;;;10.80;2.50;;;;;;;18.13;100.00;100674.00;4958084;28;20034;-74
2023/07/13 06:51:49;;;;;;;11.80;2.63;;;;;;;18.40;100.00;100682.00;4951373;28;20035;-74
2023/07/13 06:54:14;;;;;;;12.60;3.13;;;;;;;18.67;100.00;100615.09;4954831;28;20032;-73
2023/07/13 06:56:39;;;;;;;17.10;3.50;;;;;;;18.42;100.00;100500.69;4951606;28;20385;-74
2023/07/13 06:59:05;;;;;;;8.80;2.87;;;;;;;18.87;100.00;100612.28;4970294;28;20444;-74
2023/07/13 07:01:30;;;;;;;8.57;2.97;;;;;;;19.33;100.00;100554.16;4955681;28;20110;-74
2023/07/13 07:03:56;;;;;;;11.53;3.10;;;;;;;19.29;100.00;100455.56;4964282;28;20142;-73
2023/07/13 07:06:25;;;;;;;8.57;2.35;;;;;;;19.85;100.00;100534.00;4955968;28;20794;-73
2023/07/13 07:08:52;;;;;;;7.82;2.55;;;;;;;20.93;100.00;100489.56;4967993;28;20042;-73
2023/07/13 07:11:22;;;;;;;7.50;2.75;;;;;;;21.28;100.00;100263.34;4967767;28;20400;-74
2023/07/13 07:13:48;;;;;;;9.15;2.65;;;;;;;21.18;100.00;100198.84;4948048;28;20094;-73
2023/07/13 07:16:13;;;;;;;11.85;2.55;;;;;;;21.65;100.00;100222.97;4928141;29;20020;-74
2023/07/13 07:18:38;;;;;;;9.60;2.83;;;;;;;21.77;100.00;100187.56;4949643;28;20066;-74
2023/07/13 07:21:04;;;;;;;8.20;2.97;;;;;;;21.86;100.00;99998.56;4944252;28;20035;-73
2023/07/13 07:23:29;;;;;;;10.73;2.65;;;;;;;20.45;100.00;100007.97;4951208;28;20037;-74
2023/07/13 07:25:55;;;;;;;6.53;2.43;;;;;;;20.07;100.00;100223.53;4945114;28;20497;-73
2023/07/13 07:28:20;;;;;;;8.77;3.17;;;;;;;20.33;100.00;100354.19;4953434;28;20282;-73
2023/07/13 07:30:46;;;;;;;10.63;4.03;;;;;;;21.18;100.00;100179.03;4949399;28;20053;-74
2023/07/13 07:33:11;;;;;;;10.85;2.80;;;;;;;21.81;100.00;100166.16;4949905;28;20038;-73
2023/07/13 07:35:37;;;;;;;8.67;2.90;;;;;;;22.03;100.00;100060.16;4951068;28;20388;-73
2023/07/13 07:38:03;;;;;;;8.60;3.03;;;;;;;22.11;100.00;99931.97;4950979;28;20518;-74
2023/07/13 07:40:28;;;;;;;13.65;3.38;;;;;;;22.40;100.00;99939.84;4952953;28;20058;-74
2023/07/13 07:42:54;;;;;;;8.95;2.67;;;;;;;22.50;100.00;100032.38;4944046;28;20035;-73
2023/07/13 07:45:20;;;;;;;12.03;3.70;;;;;;;21.97;100.00;99803.03;4951443;28;20509;-73
2023/07/13 07:47:45;;;;;;;9.57;2.53;;;;;;;22.76;100.00;99900.91;4953601;28;20043;-74
2023/07/13 07:50:11;;;;;;;15.05;2.90;;;;;;;22.99;99.04;99711.06;4949529;28;20498;-74
2023/07/13 07:52:36;;;;;;;12.47;3.07;;;;;;;22.91;99.77;99843.00;4930508;29;20066;-74
2023/07/13 07:55:03;;;;;;;7.90;2.25;;;;;;;23.08;97.71;99793.00;4945213;28;20299;-75
2023/07/13 07:57:28;;;;;;;8.73;2.22;;;;;;;22.30;100.00;99842.69;4945366;28;20038;-75
2023/07/13 07:59:54;;;;;;;9.33;1.83;;;;;;;22.67;99.50;99853.53;4949447;28;20498;-75
2023/07/13 08:02:19;;;;;;;7.43;1.70;;;;;;;21.64;97.98;99625.69;4937203;29;20082;-75
2023/07/13 08:04:44;;;;;;;5.80;2.10;;;;;;;21.56;100.00;99865.16;4943051;28;20502;-75
2023/07/13 08:07:10;;;;;;;7.30;2.13;;;;;;;21.41;100.00;99887.53;4947689;28;20480;-74
2023/07/13 08:09:35;;;;;;;8.10;2.07;;;;;;;21.39;100.00;99794.63;4950579;28;20038;-74
2023/07/13 08:12:00;;;;;;;11.00;1.80;;;;;;;21.25;97.69;99625.94;4950810;28;20035;-74
2023/07/13 08:14:26;;;;;;;5.80;1.83;;;;;;;21.80;96.57;99700.75;4957739;28;20034;-74
2023/07/13 08:16:51;;;;;;;5.80;1.43;;;;;;;21.81;95.41;99658.09;4955456;28;20058;-75
2023/07/13 08:19:16;;;;;;;4.27;1.30;;;;;;;21.70;92.31;99461.66;4957804;28;20089;-75
2023/07/13 08:21:43;;;;;;;5.53;1.50;;;;;;;21.88;95.49;99732.84;4944245;28;20043;-74
2023/07/13 08:24:09;;;;;;;2.38;1.45;;;;;;;22.06;91.52;99549.53;4939370;28;20422;-75
2023/07/13 08:26:34;;;;;;;;;;;;;;;22.81;88.84;99606.25;4949708;28;20546;-74
2023/07/13 08:28:59;;;;;;;4.75;1.50;;;;;;;22.90;89.39;99645.44;4951612;28;19910;-75
2023/07/13 08:31:25;;;;;;;4.40;1.57;;;;;;;22.62;88.43;99518.13;4950354;28;20440;-75
2023/07/13 08:33:50;;;;;;;7.95;1.77;;;;;;;23.00;86.05;99454.16;4944489;28;20058;-74
2023/07/13 08:36:15;;;;;;;4.40;1.63;;;;;;;23.42;82.82;99335.81;4953559;28;20452;-74
2023/07/13 08:38:41;;;;;;;2.23;0.83;;;;;;;23.79;82.92;99468.03;4949397;28;20035;-74
2023/07/13 08:41:17;;;;;;;7.27;1.50;;;;;;;24.19;83.63;99676.91;4947308;28;20089;-74
2023/07/13 08:43:49;;;;;;;3.60;1.27;;;;;;;23.42;82.79;99422.97;4950472;28;20502;-74
2023/07/13 08:46:25;;;;;;;4.13;1.27;;;;;;;23.84;80.02;99309.94;4949210;28;20488;-75
2023/07/13 08:48:55;;;;;;;5.28;1.40;;;;;;;23.91;79.36;99343.13;4949279;28;20042;-75
2023/07/13 08:51:42;;;;;;;5.32;1.55;;;;;;;23.87;81.08;99529.31;4949939;28;20030;-74
2023/07/13 08:54:32;;;;;;;5.28;1.38;;;;;;;23.49;79.71;99311.00;4967017;28;20043;-75
2023/07/13 08:57:02;;;;;;;2.53;1.13;;;;;;;22.80;79.99;99190.25;4955562;28;20079;-74
2023/07/13 08:59:32;;;;;;;6.75;1.42;;;;;;;23.58;83.26;99699.66;4955590;28;20085;-74
2023/07/13 09:02:01;;;;;;;5.93;1.50;;;;;;;22.53;82.83;99376.41;4958019;28;20027;-75
2023/07/13 09:04:37;;;;;;;7.07;1.55;;;;;;;22.01;87.82;99674.53;4958599;28;20023;-74
2023/07/13 09:07:43;;;;;;;4.18;1.40;;;;;;;22.16;86.46;99585.97;4970414;28;20082;-74
2023/07/13 09:10:19;;;;;;;4.95;1.58;;;;;;;22.46;87.89;99767.47;4941389;28;20425;-74
2023/07/13 09:12:57;;;;;;;6.90;1.15;;;;;;;20.92;93.79;99762.66;4951731;28;20593;-74
2023/07/13 09:15:44;;;;;;;4.35;1.58;;;;;;;21.39;95.33;99954.81;4952159;28;20035;-73
2023/07/13 09:18:23;;;;;;;4.38;1.65;;;;;;;22.33;90.18;99813.06;4937255;28;20061;-75
2023/07/13 09:20:54;;;;;;;3.90;1.70;;;;;;;22.55;87.01;99638.06;4944194;28;20090;-74
2023/07/13 09:23:21;;;;;;;4.07;1.75;;;;;;;22.40;87.83;99651.59;4943989;28;20444;-74
2023/07/13 09:25:54;;;;;;;3.22;1.60;;;;;;;22.10;87.11;99515.31;4947668;28;20035;-73
2023/07/13 09:28:32;;;;;;;7.88;1.65;;;;;;;21.30;90.08;99585.25;4946946;28;20392;-74
2023/07/13 09:31:15;;;;;;;7.28;1.58;;;;;;;20.76;92.86;99636.91;4949993;28;20065;-73
2023/07/13 09:33:40;;;;;;;6.78;1.98;;;;;;;20.26;95.56;99671.31;4946891;28;20039;-74
2023/07/13 09:36:25;;;;;;;7.53;2.05;;;;;;;20.69;98.41;99908.31;4955379;28;20449;-74
2023/07/13 09:39:14;;;;;;;5.38;1.58;;;;;;;20.50;99.37;99868.97;4952283;28;20039;-74
2023/07/13 09:41:46;;;;;;;7.82;2.35;;;;;;;20.62;100.00;99913.91;4952569;28;20666;-73
2023/07/13 09:44:14;;;;;;;4.65;2.05;;;;;;;20.28;100.00;99866.22;4946205;28;20141;-73
2023/07/13 09:46:52;;;;;;;4.47;1.48;;;;;;;20.15;100.00;99916.94;4936837;29;20027;-73
2023/07/13 09:49:17;;;;;;;10.02;2.42;;;;;;;19.34;100.00;100046.19;4946612;28;20484;-72
2023/07/13 09:51:44;;;;;;;8.33;2.10;;;;;;;19.29;100.00;100482.63;4946375;28;20090;-72
2023/07/13 09:54:20;;;;;;;7.35;2.20;;;;;;;19.19;100.00;100617.59;4950949;28;20035;-72
2023/07/13 09:56:46;;;;;;;7.07;2.25;;;;;;;19.85;100.00;100701.97;4951925;28;20390;-73
2023/07/13 09:59:23;;;;;;;8.02;2.75;;;;;;;21.76;100.00;100593.47;4948571;28;20455;-73
2023/07/13 10:01:49;;;;;;;7.00;2.00;;;;;;;21.50;100.00;100256.16;4951934;28;20138;-73
2023/07/13 10:04:18;;;;;;;6.35;2.60;;;;;;;21.11;100.00;100183.78;4952197;28;20417;-74
2023/07/13 10:06:44;;;;;;;4.88;2.05;;;;;;;21.20;100.00;100505.34;4967032;28;20043;-73
2023/07/13 10:09:14;;;;;;;6.72;1.83;;;;;;;21.04;100.00;100415.44;4950954;28;20037;-74
2023/07/13 10:11:41;;;;;;;9.63;1.75;;;;;;;21.18;100.00;100437.72;4947688;28;20107;-74
2023/07/13 10:14:15;;;;;;;6.22;1.67;;;;;;;21.21;100.00;100341.38;4951694;28;20161;-74
2023/07/13 10:16:43;;;;;;;6.80;2.20;;;;;;;23.23;100.00;100639.13;4955612;28;20035;-74
2023/07/13 10:19:22;;;;;;;7.53;2.17;;;;;;;22.26;100.00;100261.09;4940440;28;20463;-73
2023/07/13 10:21:56;;;;;;;13.75;3.47;;;;;;;20.11;100.00;100638.50;4951534;28;20097;-74
2023/07/13 10:24:38;;;;;;;16.95;4.10;;;;;;;19.31;100.00;100875.66;4952191;28;20039;-73
2023/07/13 10:27:18;;;;;;;16.73;3.70;;;;;;;19.03;100.00;100932.84;4948132;28;20046;-74
2023/07/13 10:29:54;;;;;;;10.95;3.92;;;;;;;18.70;100.00;100962.66;4945821;28;20436;-75
2023/07/13 10:32:22;;;;;;;;;;;;;;;18.86;100.00;100969.53;4956635;28;20330;-75
2023/07/13 10:34:50;;;;;;;9.00;3.25;;;;;;;19.66;100.00;101024.19;4961577;28;20370;-75
2023/07/13 10:37:34;;;;;;;10.48;3.72;;;;;;;20.69;100.00;100930.06;4951900;28;20444;-76
2023/07/13 10:40:03;;;;;;;6.35;2.30;;;;;;;19.90;100.00;100653.34;4953174;28;20086;-76
2023/07/13 10:42:36;;;;;;;10.77;3.20;;;;;;;19.68;100.00;100718.78;4937325;29;20023;-76
2023/07/13 10:45:13;;;;;;;8.95;3.35;;;;;;;19.84;100.00;100841.19;4960712;28;20040;-77
2023/07/13 10:47:39;;;;;;;8.27;3.05;;;;;;;19.50;100.00;100894.72;4955277;28;20027;-76
2023/07/13 10:50:06;;;;;;;9.23;3.33;;;;;;;18.78;100.00;100838.06;4967548;28;20023;-76
2023/07/13 10:52:50;;;;;;;7.10;3.85;;;;;;;18.30;100.00;100879.75;4945769;28;20039;-75
2023/07/13 10:55:38;;;;;;;7.70;3.22;;;;;;;18.04;100.00;100860.88;4944787;28;20129;-73
2023/07/13 10:58:22;;;;;;;10.60;3.20;;;;;;;18.02;100.00;100885.38;4949079;28;20035;-73
2023/07/13 11:00:51;;;;;;;9.60;2.85;;;;;;;19.29;100.00;100939.19;4946136;28;20043;-73
2023/07/13 11:03:20;;;;;;;8.48;2.97;;;;;;;20.83;100.00;100915.31;4946595;28;20038;-74
2023/07/13 11:05:50;;;;;;;6.55;2.30;;;;;;;21.23;100.00;100616.97;4945627;28;20042;-73
2023/07/13 11:08:31;;;;;;;8.70;2.50;;;;;;;21.23;100.00;100489.38;4950727;28;20598;-74
2023/07/13 11:10:56;;;;;;;6.38;2.55;;;;;;;21.30;100.00;100372.50;4948655;28;20806;-74
2023/07/13 11:13:55;;;;;;;5.45;1.65;;;;;;;21.64;100.00;100101.00;4967614;28;20109;-74
2023/07/13 11:16:23;;;;;;;6.43;1.70;;;;;;;22.61;100.00;100346.94;4966971;28;20035;-74
2023/07/13 11:18:52;;;;;;;3.65;1.38;;;;;;;22.99;100.00;100268.25;4966981;28;20117;-73
2023/07/13 11:21:22;;;;;;;5.30;1.73;;;;;;;22.29;100.00;100085.78;4966834;28;20039;-74
2023/07/13 11:24:03;;;;;;;3.30;1.50;;;;;;;21.88;100.00;100162.16;4966355;28;20039;-74